sensor_id;sensor_type;location;lat;lon;timestamp;P1;durP1;ratioP1;P2;durP2;ratioP2
24044;SDS011;26257;49.442;8.422;2022-11-20T00:01:23;35.67;;;19.05;;
24044;SDS011;26257;49.442;8.422;2022-11-20T00:03:51;31.30;;;17.88;;
24044;SDS011;26257;49.442;8.422;2022-11-20T00:06:18;29.50;;;16.75;;
24044;SDS011;26257;49.442;8.422;2022-11-20T00:08:45;27.55;;;15.18;;
24044;SDS011;26257;49.442;8.422;2022-11-20T00:11:11;29.52;;;15.80;;
24044;SDS011;26257;49.442;8.422;2022-11-20T00:13:41;27.60;;;16.08;;
24044;SDS011;26257;49.442;8.422;2022-11-20T00:16:09;28.15;;;15.45;;
24044;SDS011;26257;49.442;8.422;2022-11-20T00:18:36;29.05;;;16.83;;
24044;SDS011;26257;49.442;8.422;2022-11-20T00:21:15;33.08;;;17.48;;
24044;SDS011;26257;49.442;8.422;2022-11-20T00:23:44;30.20;;;16.15;;
24044;SDS011;26257;49.442;8.422;2022-11-20T00:26:10;30.85;;;16.20;;
24044;SDS011;26257;49.442;8.422;2022-11-20T00:28:42;31.80;;;17.30;;
24044;SDS011;26257;49.442;8.422;2022-11-20T00:31:10;30.65;;;16.95;;
24044;SDS011;26257;49.442;8.422;2022-11-20T00:33:40;28.92;;;16.27;;
24044;SDS011;26257;49.442;8.422;2022-11-20T00:36:07;28.85;;;16.10;;
24044;SDS011;26257;49.442;8.422;2022-11-20T00:38:36;32.05;;;17.45;;
24044;SDS011;26257;49.442;8.422;2022-11-20T00:41:03;29.30;;;15.32;;
24044;SDS011;26257;49.442;8.422;2022-11-20T00:43:30;30.42;;;17.20;;
24044;SDS011;26257;49.442;8.422;2022-11-20T00:45:56;31.05;;;16.20;;
24044;SDS011;26257;49.442;8.422;2022-11-20T00:48:22;32.25;;;18.20;;
24044;SDS011;26257;49.442;8.422;2022-11-20T00:50:48;31.05;;;16.73;;
24044;SDS011;26257;49.442;8.422;2022-11-20T00:53:13;29.63;;;16.27;;
24044;SDS011;26257;49.442;8.422;2022-11-20T00:55:39;32.10;;;16.88;;
24044;SDS011;26257;49.442;8.422;2022-11-20T00:58:04;32.03;;;16.13;;
24044;SDS011;26257;49.442;8.422;2022-11-20T01:00:30;32.33;;;16.58;;
24044;SDS011;26257;49.442;8.422;2022-11-20T01:02:55;29.88;;;16.35;;
24044;SDS011;26257;49.442;8.422;2022-11-20T01:05:21;27.38;;;15.40;;
24044;SDS011;26257;49.442;8.422;2022-11-20T01:07:46;25.58;;;14.82;;
24044;SDS011;26257;49.442;8.422;2022-11-20T01:10:11;26.30;;;14.23;;
24044;SDS011;26257;49.442;8.422;2022-11-20T01:12:37;26.77;;;14.70;;
24044;SDS011;26257;49.442;8.422;2022-11-20T01:15:02;27.83;;;15.32;;
24044;SDS011;26257;49.442;8.422;2022-11-20T01:17:28;30.52;;;16.95;;
24044;SDS011;26257;49.442;8.422;2022-11-20T01:19:53;31.05;;;16.85;;
24044;SDS011;26257;49.442;8.422;2022-11-20T01:22:19;30.98;;;16.60;;
24044;SDS011;26257;49.442;8.422;2022-11-20T01:24:44;25.95;;;14.77;;
24044;SDS011;26257;49.442;8.422;2022-11-20T01:27:09;30.85;;;16.83;;
24044;SDS011;26257;49.442;8.422;2022-11-20T01:29:35;30.15;;;16.63;;
24044;SDS011;26257;49.442;8.422;2022-11-20T01:32:00;28.83;;;16.10;;
24044;SDS011;26257;49.442;8.422;2022-11-20T01:34:26;28.92;;;15.95;;
24044;SDS011;26257;49.442;8.422;2022-11-20T01:36:52;30.38;;;16.20;;
24044;SDS011;26257;49.442;8.422;2022-11-20T01:39:19;31.23;;;16.92;;
24044;SDS011;26257;49.442;8.422;2022-11-20T01:41:47;34.97;;;17.88;;
24044;SDS011;26257;49.442;8.422;2022-11-20T01:47:17;35.20;;;18.73;;
24044;SDS011;26257;49.442;8.422;2022-11-20T01:49:50;36.40;;;19.67;;
24044;SDS011;26257;49.442;8.422;2022-11-20T01:55:21;36.90;;;19.40;;
24044;SDS011;26257;49.442;8.422;2022-11-20T01:57:49;37.58;;;19.48;;
24044;SDS011;26257;49.442;8.422;2022-11-20T02:00:17;34.17;;;18.65;;
24044;SDS011;26257;49.442;8.422;2022-11-20T02:02:45;33.35;;;17.95;;
24044;SDS011;26257;49.442;8.422;2022-11-20T02:07:59;33.67;;;18.35;;
24044;SDS011;26257;49.442;8.422;2022-11-20T02:10:27;31.45;;;17.02;;
24044;SDS011;26257;49.442;8.422;2022-11-20T02:12:54;34.20;;;18.60;;
24044;SDS011;26257;49.442;8.422;2022-11-20T02:15:38;33.22;;;18.27;;
24044;SDS011;26257;49.442;8.422;2022-11-20T02:18:03;34.35;;;18.70;;
24044;SDS011;26257;49.442;8.422;2022-11-20T02:20:31;36.35;;;19.27;;
24044;SDS011;26257;49.442;8.422;2022-11-20T02:22:58;33.58;;;18.55;;
24044;SDS011;26257;49.442;8.422;2022-11-20T02:25:28;37.95;;;20.08;;
24044;SDS011;26257;49.442;8.422;2022-11-20T02:27:56;36.35;;;19.25;;
24044;SDS011;26257;49.442;8.422;2022-11-20T02:30:21;34.28;;;18.50;;
24044;SDS011;26257;49.442;8.422;2022-11-20T02:32:46;34.55;;;19.23;;
24044;SDS011;26257;49.442;8.422;2022-11-20T02:37:43;33.55;;;18.67;;
24044;SDS011;26257;49.442;8.422;2022-11-20T02:40:12;32.33;;;17.63;;
24044;SDS011;26257;49.442;8.422;2022-11-20T02:42:38;34.03;;;18.10;;
24044;SDS011;26257;49.442;8.422;2022-11-20T02:45:04;36.70;;;18.63;;
24044;SDS011;26257;49.442;8.422;2022-11-20T02:47:30;33.67;;;18.17;;
24044;SDS011;26257;49.442;8.422;2022-11-20T03:08:58;37.20;;;18.75;;
24044;SDS011;26257;49.442;8.422;2022-11-20T03:11:23;35.88;;;19.27;;
24044;SDS011;26257;49.442;8.422;2022-11-20T03:13:49;40.38;;;20.40;;
24044;SDS011;26257;49.442;8.422;2022-11-20T03:16:15;37.40;;;18.67;;
24044;SDS011;26257;49.442;8.422;2022-11-20T03:18:42;35.88;;;18.50;;
24044;SDS011;26257;49.442;8.422;2022-11-20T03:21:09;38.70;;;19.20;;
24044;SDS011;26257;49.442;8.422;2022-11-20T03:23:37;34.47;;;18.88;;
24044;SDS011;26257;49.442;8.422;2022-11-20T03:26:15;32.03;;;16.85;;
24044;SDS011;26257;49.442;8.422;2022-11-20T03:28:50;34.72;;;17.08;;
24044;SDS011;26257;49.442;8.422;2022-11-20T03:31:21;32.53;;;17.02;;
24044;SDS011;26257;49.442;8.422;2022-11-20T03:33:48;31.23;;;16.80;;
24044;SDS011;26257;49.442;8.422;2022-11-20T03:36:14;32.38;;;17.52;;
24044;SDS011;26257;49.442;8.422;2022-11-20T03:38:41;28.83;;;15.88;;
24044;SDS011;26257;49.442;8.422;2022-11-20T03:41:08;30.70;;;16.27;;
24044;SDS011;26257;49.442;8.422;2022-11-20T03:43:35;29.35;;;15.32;;
24044;SDS011;26257;49.442;8.422;2022-11-20T03:46:00;29.30;;;15.48;;
24044;SDS011;26257;49.442;8.422;2022-11-20T03:48:27;33.17;;;17.08;;
24044;SDS011;26257;49.442;8.422;2022-11-20T03:50:53;31.20;;;16.52;;
24044;SDS011;26257;49.442;8.422;2022-11-20T03:53:31;33.85;;;18.63;;
24044;SDS011;26257;49.442;8.422;2022-11-20T03:55:56;34.35;;;17.33;;
24044;SDS011;26257;49.442;8.422;2022-11-20T03:58:22;34.38;;;17.77;;
24044;SDS011;26257;49.442;8.422;2022-11-20T04:00:47;37.15;;;17.70;;
24044;SDS011;26257;49.442;8.422;2022-11-20T04:03:12;36.60;;;18.40;;
24044;SDS011;26257;49.442;8.422;2022-11-20T04:05:38;37.63;;;19.23;;
24044;SDS011;26257;49.442;8.422;2022-11-20T04:08:03;37.97;;;19.58;;
24044;SDS011;26257;49.442;8.422;2022-11-20T04:10:29;41.58;;;20.52;;
24044;SDS011;26257;49.442;8.422;2022-11-20T04:12:54;41.17;;;19.25;;
24044;SDS011;26257;49.442;8.422;2022-11-20T04:15:20;37.42;;;18.90;;
24044;SDS011;26257;49.442;8.422;2022-11-20T04:17:45;44.13;;;21.00;;
24044;SDS011;26257;49.442;8.422;2022-11-20T04:20:10;39.72;;;19.05;;
24044;SDS011;26257;49.442;8.422;2022-11-20T04:22:36;43.58;;;20.20;;
24044;SDS011;26257;49.442;8.422;2022-11-20T04:25:02;42.70;;;20.88;;
24044;SDS011;26257;49.442;8.422;2022-11-20T04:27:27;40.17;;;18.55;;
24044;SDS011;26257;49.442;8.422;2022-11-20T04:29:53;40.78;;;20.60;;
24044;SDS011;26257;49.442;8.422;2022-11-20T04:32:18;38.28;;;19.15;;
24044;SDS011;26257;49.442;8.422;2022-11-20T04:34:43;38.17;;;19.38;;
24044;SDS011;26257;49.442;8.422;2022-11-20T04:37:09;36.97;;;17.38;;
24044;SDS011;26257;49.442;8.422;2022-11-20T04:39:34;37.33;;;18.27;;
24044;SDS011;26257;49.442;8.422;2022-11-20T04:41:59;37.58;;;20.23;;
24044;SDS011;26257;49.442;8.422;2022-11-20T04:44:43;64.45;;;31.92;;
24044;SDS011;26257;49.442;8.422;2022-11-20T04:47:09;40.13;;;19.48;;
24044;SDS011;26257;49.442;8.422;2022-11-20T04:49:34;31.95;;;17.67;;
24044;SDS011;26257;49.442;8.422;2022-11-20T04:51:59;34.60;;;17.98;;
24044;SDS011;26257;49.442;8.422;2022-11-20T04:54:25;36.00;;;19.05;;
24044;SDS011;26257;49.442;8.422;2022-11-20T04:56:50;33.83;;;17.63;;
24044;SDS011;26257;49.442;8.422;2022-11-20T04:59:16;28.80;;;15.77;;
24044;SDS011;26257;49.442;8.422;2022-11-20T05:01:41;29.23;;;16.08;;
24044;SDS011;26257;49.442;8.422;2022-11-20T05:04:07;28.67;;;14.98;;
24044;SDS011;26257;49.442;8.422;2022-11-20T05:06:33;29.42;;;15.70;;
24044;SDS011;26257;49.442;8.422;2022-11-20T05:08:58;27.85;;;14.85;;
24044;SDS011;26257;49.442;8.422;2022-11-20T05:11:24;30.50;;;16.23;;
24044;SDS011;26257;49.442;8.422;2022-11-20T05:13:50;33.40;;;15.23;;
24044;SDS011;26257;49.442;8.422;2022-11-20T05:16:17;33.08;;;15.73;;
24044;SDS011;26257;49.442;8.422;2022-11-20T05:18:44;37.80;;;18.10;;
24044;SDS011;26257;49.442;8.422;2022-11-20T05:21:11;37.50;;;18.38;;
24044;SDS011;26257;49.442;8.422;2022-11-20T05:23:37;36.75;;;18.00;;
24044;SDS011;26257;49.442;8.422;2022-11-20T05:26:04;40.20;;;19.58;;
24044;SDS011;26257;49.442;8.422;2022-11-20T05:28:30;39.53;;;18.25;;
24044;SDS011;26257;49.442;8.422;2022-11-20T05:31:03;38.40;;;18.88;;
24044;SDS011;26257;49.442;8.422;2022-11-20T05:33:29;33.72;;;17.77;;
24044;SDS011;26257;49.442;8.422;2022-11-20T05:35:57;43.28;;;22.80;;
24044;SDS011;26257;49.442;8.422;2022-11-20T05:38:23;76.80;;;38.45;;
24044;SDS011;26257;49.442;8.422;2022-11-20T05:40:48;34.92;;;18.48;;
24044;SDS011;26257;49.442;8.422;2022-11-20T05:43:14;35.83;;;17.80;;
24044;SDS011;26257;49.442;8.422;2022-11-20T05:45:39;33.30;;;17.13;;
24044;SDS011;26257;49.442;8.422;2022-11-20T05:48:05;33.08;;;17.58;;
24044;SDS011;26257;49.442;8.422;2022-11-20T05:50:30;35.38;;;18.27;;
24044;SDS011;26257;49.442;8.422;2022-11-20T05:52:59;34.45;;;16.98;;
24044;SDS011;26257;49.442;8.422;2022-11-20T05:55:25;30.77;;;16.50;;
24044;SDS011;26257;49.442;8.422;2022-11-20T05:57:52;29.55;;;15.35;;
24044;SDS011;26257;49.442;8.422;2022-11-20T06:00:18;32.15;;;16.60;;
24044;SDS011;26257;49.442;8.422;2022-11-20T06:02:44;28.83;;;15.52;;
24044;SDS011;26257;49.442;8.422;2022-11-20T06:05:09;44.72;;;23.65;;
24044;SDS011;26257;49.442;8.422;2022-11-20T06:07:35;33.15;;;17.77;;
24044;SDS011;26257;49.442;8.422;2022-11-20T06:10:00;36.47;;;17.30;;
24044;SDS011;26257;49.442;8.422;2022-11-20T06:12:25;36.70;;;17.90;;
24044;SDS011;26257;49.442;8.422;2022-11-20T06:14:51;31.05;;;16.83;;
24044;SDS011;26257;49.442;8.422;2022-11-20T06:17:16;34.20;;;17.15;;
24044;SDS011;26257;49.442;8.422;2022-11-20T06:19:42;32.75;;;16.73;;
24044;SDS011;26257;49.442;8.422;2022-11-20T06:22:07;35.50;;;18.67;;
24044;SDS011;26257;49.442;8.422;2022-11-20T06:24:33;43.15;;;21.85;;
24044;SDS011;26257;49.442;8.422;2022-11-20T06:26:58;55.10;;;25.08;;
24044;SDS011;26257;49.442;8.422;2022-11-20T06:29:23;36.35;;;17.33;;
24044;SDS011;26257;49.442;8.422;2022-11-20T06:31:49;34.35;;;17.83;;
24044;SDS011;26257;49.442;8.422;2022-11-20T06:34:14;34.47;;;17.58;;
24044;SDS011;26257;49.442;8.422;2022-11-20T06:36:39;31.10;;;17.17;;
24044;SDS011;26257;49.442;8.422;2022-11-20T06:39:05;32.72;;;16.35;;
24044;SDS011;26257;49.442;8.422;2022-11-20T06:41:30;34.28;;;17.83;;
24044;SDS011;26257;49.442;8.422;2022-11-20T06:43:56;33.60;;;17.23;;
24044;SDS011;26257;49.442;8.422;2022-11-20T06:46:21;26.92;;;15.57;;
24044;SDS011;26257;49.442;8.422;2022-11-20T06:48:47;31.15;;;16.40;;
24044;SDS011;26257;49.442;8.422;2022-11-20T06:51:14;30.13;;;16.10;;
24044;SDS011;26257;49.442;8.422;2022-11-20T06:53:40;30.27;;;16.73;;
24044;SDS011;26257;49.442;8.422;2022-11-20T06:56:05;29.63;;;15.88;;
24044;SDS011;26257;49.442;8.422;2022-11-20T06:58:32;34.00;;;16.38;;
24044;SDS011;26257;49.442;8.422;2022-11-20T07:01:00;30.67;;;15.95;;
24044;SDS011;26257;49.442;8.422;2022-11-20T07:03:26;28.70;;;15.98;;
24044;SDS011;26257;49.442;8.422;2022-11-20T07:05:54;29.00;;;16.08;;
24044;SDS011;26257;49.442;8.422;2022-11-20T07:08:20;29.70;;;15.93;;
24044;SDS011;26257;49.442;8.422;2022-11-20T07:10:45;27.30;;;15.32;;
24044;SDS011;26257;49.442;8.422;2022-11-20T07:13:11;33.72;;;17.40;;
24044;SDS011;26257;49.442;8.422;2022-11-20T07:15:36;32.42;;;16.13;;
24044;SDS011;26257;49.442;8.422;2022-11-20T07:18:01;34.22;;;18.05;;
24044;SDS011;26257;49.442;8.422;2022-11-20T07:20:27;42.58;;;21.17;;
24044;SDS011;26257;49.442;8.422;2022-11-20T07:22:56;39.10;;;19.80;;
24044;SDS011;26257;49.442;8.422;2022-11-20T07:25:23;31.27;;;17.20;;
24044;SDS011;26257;49.442;8.422;2022-11-20T07:27:49;37.72;;;18.33;;
24044;SDS011;26257;49.442;8.422;2022-11-20T07:30:17;32.63;;;17.02;;
24044;SDS011;26257;49.442;8.422;2022-11-20T07:32:47;33.00;;;17.20;;
24044;SDS011;26257;49.442;8.422;2022-11-20T07:35:16;38.10;;;18.17;;
24044;SDS011;26257;49.442;8.422;2022-11-20T07:37:41;34.53;;;18.05;;
24044;SDS011;26257;49.442;8.422;2022-11-20T07:40:07;33.85;;;16.92;;
24044;SDS011;26257;49.442;8.422;2022-11-20T07:42:32;36.00;;;18.98;;
24044;SDS011;26257;49.442;8.422;2022-11-20T07:44:58;33.03;;;16.77;;
24044;SDS011;26257;49.442;8.422;2022-11-20T07:47:23;31.25;;;17.20;;
24044;SDS011;26257;49.442;8.422;2022-11-20T07:49:48;31.40;;;16.70;;
24044;SDS011;26257;49.442;8.422;2022-11-20T07:52:14;34.05;;;17.52;;
24044;SDS011;26257;49.442;8.422;2022-11-20T07:54:39;33.83;;;17.15;;
24044;SDS011;26257;49.442;8.422;2022-11-20T07:57:04;31.77;;;16.88;;
24044;SDS011;26257;49.442;8.422;2022-11-20T07:59:30;32.40;;;17.17;;
24044;SDS011;26257;49.442;8.422;2022-11-20T08:01:56;31.48;;;16.90;;
24044;SDS011;26257;49.442;8.422;2022-11-20T08:04:21;31.02;;;16.15;;
24044;SDS011;26257;49.442;8.422;2022-11-20T08:06:48;28.85;;;16.42;;
24044;SDS011;26257;49.442;8.422;2022-11-20T08:09:14;32.25;;;17.75;;
24044;SDS011;26257;49.442;8.422;2022-11-20T08:11:39;31.10;;;16.15;;
24044;SDS011;26257;49.442;8.422;2022-11-20T08:14:23;34.22;;;19.58;;
24044;SDS011;26257;49.442;8.422;2022-11-20T08:16:49;31.40;;;16.75;;
24044;SDS011;26257;49.442;8.422;2022-11-20T08:19:16;35.45;;;19.45;;
24044;SDS011;26257;49.442;8.422;2022-11-20T08:21:42;27.08;;;15.73;;
24044;SDS011;26257;49.442;8.422;2022-11-20T08:24:09;31.27;;;17.67;;
24044;SDS011;26257;49.442;8.422;2022-11-20T08:26:36;31.52;;;18.23;;
24044;SDS011;26257;49.442;8.422;2022-11-20T08:29:05;27.92;;;16.23;;
24044;SDS011;26257;49.442;8.422;2022-11-20T08:31:31;32.95;;;18.08;;
24044;SDS011;26257;49.442;8.422;2022-11-20T08:33:57;35.80;;;19.40;;
24044;SDS011;26257;49.442;8.422;2022-11-20T08:36:22;31.85;;;17.30;;
24044;SDS011;26257;49.442;8.422;2022-11-20T08:38:49;117.93;;;69.90;;
24044;SDS011;26257;49.442;8.422;2022-11-20T08:41:16;30.15;;;17.55;;
24044;SDS011;26257;49.442;8.422;2022-11-20T08:44:03;44.25;;;27.10;;
24044;SDS011;26257;49.442;8.422;2022-11-20T08:46:40;30.80;;;17.23;;
24044;SDS011;26257;49.442;8.422;2022-11-20T08:49:10;29.23;;;16.05;;
24044;SDS011;26257;49.442;8.422;2022-11-20T09:08:37;35.47;;;17.90;;
24044;SDS011;26257;49.442;8.422;2022-11-20T09:11:04;37.60;;;18.92;;
24044;SDS011;26257;49.442;8.422;2022-11-20T09:13:30;37.33;;;20.02;;
24044;SDS011;26257;49.442;8.422;2022-11-20T09:15:56;43.13;;;23.70;;
24044;SDS011;26257;49.442;8.422;2022-11-20T09:18:23;36.72;;;20.25;;
24044;SDS011;26257;49.442;8.422;2022-11-20T09:20:55;38.92;;;19.33;;
24044;SDS011;26257;49.442;8.422;2022-11-20T09:23:21;34.55;;;19.00;;
24044;SDS011;26257;49.442;8.422;2022-11-20T09:25:46;37.13;;;19.17;;
24044;SDS011;26257;49.442;8.422;2022-11-20T09:28:12;34.08;;;18.30;;
24044;SDS011;26257;49.442;8.422;2022-11-20T09:30:38;32.00;;;16.92;;
24044;SDS011;26257;49.442;8.422;2022-11-20T09:33:04;35.10;;;17.30;;
24044;SDS011;26257;49.442;8.422;2022-11-20T09:35:29;33.58;;;17.58;;
24044;SDS011;26257;49.442;8.422;2022-11-20T09:37:55;36.58;;;19.48;;
24044;SDS011;26257;49.442;8.422;2022-11-20T09:40:25;49.53;;;27.02;;
24044;SDS011;26257;49.442;8.422;2022-11-20T09:56:41;34.35;;;18.63;;
24044;SDS011;26257;49.442;8.422;2022-11-20T09:59:14;35.28;;;18.77;;
24044;SDS011;26257;49.442;8.422;2022-11-20T10:01:53;32.33;;;17.90;;
24044;SDS011;26257;49.442;8.422;2022-11-20T10:04:20;34.83;;;19.23;;
24044;SDS011;26257;49.442;8.422;2022-11-20T10:07:00;35.53;;;18.35;;
24044;SDS011;26257;49.442;8.422;2022-11-20T10:17:43;37.90;;;19.50;;
24044;SDS011;26257;49.442;8.422;2022-11-20T10:20:40;35.17;;;19.60;;
24044;SDS011;26257;49.442;8.422;2022-11-20T10:26:26;42.28;;;21.83;;
24044;SDS011;26257;49.442;8.422;2022-11-20T10:32:10;42.67;;;21.40;;
24044;SDS011;26257;49.442;8.422;2022-11-20T10:37:32;35.85;;;19.30;;
24044;SDS011;26257;49.442;8.422;2022-11-20T10:42:50;32.63;;;17.25;;
24044;SDS011;26257;49.442;8.422;2022-11-20T10:45:28;36.10;;;19.98;;
24044;SDS011;26257;49.442;8.422;2022-11-20T10:50:32;32.95;;;18.55;;
24044;SDS011;26257;49.442;8.422;2022-11-20T10:56:07;36.93;;;19.93;;
24044;SDS011;26257;49.442;8.422;2022-11-20T11:01:40;38.55;;;19.80;;
24044;SDS011;26257;49.442;8.422;2022-11-20T11:06:57;33.33;;;19.27;;
24044;SDS011;26257;49.442;8.422;2022-11-20T11:09:32;37.90;;;19.30;;
24044;SDS011;26257;49.442;8.422;2022-11-20T11:12:07;31.13;;;18.00;;
24044;SDS011;26257;49.442;8.422;2022-11-20T11:14:41;27.20;;;15.40;;
24044;SDS011;26257;49.442;8.422;2022-11-20T11:17:25;24.23;;;15.68;;
24044;SDS011;26257;49.442;8.422;2022-11-20T11:19:56;27.38;;;16.55;;
24044;SDS011;26257;49.442;8.422;2022-11-20T11:22:50;25.33;;;15.15;;
24044;SDS011;26257;49.442;8.422;2022-11-20T11:28:01;23.83;;;14.77;;
24044;SDS011;26257;49.442;8.422;2022-11-20T11:30:44;172.60;;;98.45;;
24044;SDS011;26257;49.442;8.422;2022-11-20T11:33:11;25.50;;;15.25;;
24044;SDS011;26257;49.442;8.422;2022-11-20T11:35:48;19.17;;;13.05;;
24044;SDS011;26257;49.442;8.422;2022-11-20T11:38:20;19.88;;;13.32;;
24044;SDS011;26257;49.442;8.422;2022-11-20T11:40:53;22.45;;;13.68;;
24044;SDS011;26257;49.442;8.422;2022-11-20T11:43:20;19.13;;;12.85;;
24044;SDS011;26257;49.442;8.422;2022-11-20T11:46:24;18.73;;;11.95;;
24044;SDS011;26257;49.442;8.422;2022-11-20T11:51:53;17.13;;;10.80;;
24044;SDS011;26257;49.442;8.422;2022-11-20T11:54:38;15.85;;;10.98;;
24044;SDS011;26257;49.442;8.422;2022-11-20T11:57:07;13.90;;;9.48;;
24044;SDS011;26257;49.442;8.422;2022-11-20T12:02:15;17.30;;;10.35;;
24044;SDS011;26257;49.442;8.422;2022-11-20T12:04:56;13.18;;;7.65;;
24044;SDS011;26257;49.442;8.422;2022-11-20T12:09:56;10.90;;;5.80;;
24044;SDS011;26257;49.442;8.422;2022-11-20T12:12:27;9.13;;;5.25;;
24044;SDS011;26257;49.442;8.422;2022-11-20T12:15:00;10.48;;;6.20;;
24044;SDS011;26257;49.442;8.422;2022-11-20T12:17:26;12.10;;;6.18;;
24044;SDS011;26257;49.442;8.422;2022-11-20T12:19:51;11.13;;;6.82;;
24044;SDS011;26257;49.442;8.422;2022-11-20T12:30:24;7.68;;;3.10;;
24044;SDS011;26257;49.442;8.422;2022-11-20T12:43:43;6.85;;;2.05;;
24044;SDS011;26257;49.442;8.422;2022-11-20T12:46:52;5.13;;;2.45;;
24044;SDS011;26257;49.442;8.422;2022-11-20T12:52:38;9.70;;;3.53;;
24044;SDS011;26257;49.442;8.422;2022-11-20T12:55:23;8.20;;;3.05;;
24044;SDS011;26257;49.442;8.422;2022-11-20T12:58:37;5.57;;;2.25;;
24044;SDS011;26257;49.442;8.422;2022-11-20T13:01:29;6.00;;;2.15;;
24044;SDS011;26257;49.442;8.422;2022-11-20T13:04:16;6.72;;;1.85;;
24044;SDS011;26257;49.442;8.422;2022-11-20T13:06:44;7.53;;;2.75;;
24044;SDS011;26257;49.442;8.422;2022-11-20T13:09:11;6.82;;;2.00;;
24044;SDS011;26257;49.442;8.422;2022-11-20T13:17:41;5.68;;;1.48;;
24044;SDS011;26257;49.442;8.422;2022-11-20T13:20:16;7.60;;;1.73;;
24044;SDS011;26257;49.442;8.422;2022-11-20T13:22:44;5.05;;;1.50;;
24044;SDS011;26257;49.442;8.422;2022-11-20T13:27:51;5.90;;;1.83;;
24044;SDS011;26257;49.442;8.422;2022-11-20T13:30:21;8.13;;;2.10;;
24044;SDS011;26257;49.442;8.422;2022-11-20T13:32:51;4.70;;;1.45;;
24044;SDS011;26257;49.442;8.422;2022-11-20T13:35:26;7.30;;;1.85;;
24044;SDS011;26257;49.442;8.422;2022-11-20T13:38:00;4.93;;;1.65;;
24044;SDS011;26257;49.442;8.422;2022-11-20T13:40:31;6.00;;;1.73;;
24044;SDS011;26257;49.442;8.422;2022-11-20T13:43:18;5.90;;;1.77;;
24044;SDS011;26257;49.442;8.422;2022-11-20T13:46:07;4.68;;;1.50;;
24044;SDS011;26257;49.442;8.422;2022-11-20T13:48:38;8.68;;;1.65;;
24044;SDS011;26257;49.442;8.422;2022-11-20T14:01:55;5.60;;;1.55;;
24044;SDS011;26257;49.442;8.422;2022-11-20T14:04:31;4.47;;;1.15;;
24044;SDS011;26257;49.442;8.422;2022-11-20T14:07:02;7.95;;;1.40;;
24044;SDS011;26257;49.442;8.422;2022-11-20T14:09:32;3.55;;;1.30;;
24044;SDS011;26257;49.442;8.422;2022-11-20T14:11:59;3.85;;;0.98;;
24044;SDS011;26257;49.442;8.422;2022-11-20T14:14:29;5.32;;;1.10;;
24044;SDS011;26257;49.442;8.422;2022-11-20T14:17:09;3.55;;;1.10;;
24044;SDS011;26257;49.442;8.422;2022-11-20T14:19:45;5.43;;;1.63;;
24044;SDS011;26257;49.442;8.422;2022-11-20T14:22:22;4.22;;;1.20;;
24044;SDS011;26257;49.442;8.422;2022-11-20T14:27:41;5.00;;;1.30;;
24044;SDS011;26257;49.442;8.422;2022-11-20T14:30:14;3.28;;;1.20;;
24044;SDS011;26257;49.442;8.422;2022-11-20T14:32:46;4.30;;;1.75;;
24044;SDS011;26257;49.442;8.422;2022-11-20T14:35:47;8.10;;;2.22;;
24044;SDS011;26257;49.442;8.422;2022-11-20T14:38:13;4.65;;;1.40;;
24044;SDS011;26257;49.442;8.422;2022-11-20T14:40:41;5.65;;;0.85;;
24044;SDS011;26257;49.442;8.422;2022-11-20T14:45:46;5.75;;;1.40;;
24044;SDS011;26257;49.442;8.422;2022-11-20T14:48:20;4.90;;;1.17;;
24044;SDS011;26257;49.442;8.422;2022-11-20T14:51:05;6.38;;;1.45;;
24044;SDS011;26257;49.442;8.422;2022-11-20T14:53:33;4.03;;;1.40;;
24044;SDS011;26257;49.442;8.422;2022-11-20T14:55:59;7.45;;;1.45;;
24044;SDS011;26257;49.442;8.422;2022-11-20T14:58:30;5.82;;;1.40;;
24044;SDS011;26257;49.442;8.422;2022-11-20T15:01:05;2.97;;;1.25;;
24044;SDS011;26257;49.442;8.422;2022-11-20T15:06:09;7.75;;;1.70;;
24044;SDS011;26257;49.442;8.422;2022-11-20T15:11:01;3.90;;;1.05;;
24044;SDS011;26257;49.442;8.422;2022-11-20T15:13:37;7.90;;;1.20;;
24044;SDS011;26257;49.442;8.422;2022-11-20T15:16:08;6.30;;;1.50;;
24044;SDS011;26257;49.442;8.422;2022-11-20T15:18:42;3.78;;;1.15;;
24044;SDS011;26257;49.442;8.422;2022-11-20T15:21:10;10.27;;;2.15;;
24044;SDS011;26257;49.442;8.422;2022-11-20T15:23:37;7.70;;;1.63;;
24044;SDS011;26257;49.442;8.422;2022-11-20T15:26:06;3.80;;;1.48;;
24044;SDS011;26257;49.442;8.422;2022-11-20T15:28:34;3.57;;;1.40;;
24044;SDS011;26257;49.442;8.422;2022-11-20T15:31:02;5.20;;;1.52;;
24044;SDS011;26257;49.442;8.422;2022-11-20T15:33:29;9.60;;;4.03;;
24044;SDS011;26257;49.442;8.422;2022-11-20T15:35:55;8.55;;;2.97;;
24044;SDS011;26257;49.442;8.422;2022-11-20T15:38:20;7.38;;;2.40;;
24044;SDS011;26257;49.442;8.422;2022-11-20T15:40:46;5.07;;;1.95;;
24044;SDS011;26257;49.442;8.422;2022-11-20T15:43:11;5.72;;;2.05;;
24044;SDS011;26257;49.442;8.422;2022-11-20T15:48:14;4.68;;;1.80;;
24044;SDS011;26257;49.442;8.422;2022-11-20T15:50:59;4.70;;;2.03;;
24044;SDS011;26257;49.442;8.422;2022-11-20T15:53:29;6.30;;;1.85;;
24044;SDS011;26257;49.442;8.422;2022-11-20T15:55:54;6.85;;;1.92;;
24044;SDS011;26257;49.442;8.422;2022-11-20T15:58:20;6.63;;;1.90;;
24044;SDS011;26257;49.442;8.422;2022-11-20T16:00:49;4.95;;;1.80;;
24044;SDS011;26257;49.442;8.422;2022-11-20T16:03:15;5.05;;;1.77;;
24044;SDS011;26257;49.442;8.422;2022-11-20T16:05:42;8.38;;;1.85;;
24044;SDS011;26257;49.442;8.422;2022-11-20T16:08:07;6.65;;;2.22;;
24044;SDS011;26257;49.442;8.422;2022-11-20T16:10:33;6.97;;;1.85;;
24044;SDS011;26257;49.442;8.422;2022-11-20T16:12:58;4.70;;;2.00;;
24044;SDS011;26257;49.442;8.422;2022-11-20T16:15:44;4.15;;;1.58;;
24044;SDS011;26257;49.442;8.422;2022-11-20T16:18:19;6.55;;;1.75;;
24044;SDS011;26257;49.442;8.422;2022-11-20T16:20:47;6.10;;;2.08;;
24044;SDS011;26257;49.442;8.422;2022-11-20T16:23:15;6.80;;;2.08;;
24044;SDS011;26257;49.442;8.422;2022-11-20T16:25:41;8.32;;;2.38;;
24044;SDS011;26257;49.442;8.422;2022-11-20T16:28:07;9.40;;;2.83;;
24044;SDS011;26257;49.442;8.422;2022-11-20T16:30:33;6.75;;;2.88;;
24044;SDS011;26257;49.442;8.422;2022-11-20T16:33:00;9.70;;;2.85;;
24044;SDS011;26257;49.442;8.422;2022-11-20T16:35:27;9.02;;;3.17;;
24044;SDS011;26257;49.442;8.422;2022-11-20T16:37:54;4.75;;;2.17;;
24044;SDS011;26257;49.442;8.422;2022-11-20T16:40:20;8.48;;;2.30;;
24044;SDS011;26257;49.442;8.422;2022-11-20T16:42:46;5.00;;;2.28;;
24044;SDS011;26257;49.442;8.422;2022-11-20T16:45:11;7.15;;;2.38;;
24044;SDS011;26257;49.442;8.422;2022-11-20T16:47:37;6.03;;;2.25;;
24044;SDS011;26257;49.442;8.422;2022-11-20T16:50:03;7.03;;;2.47;;
24044;SDS011;26257;49.442;8.422;2022-11-20T16:52:29;7.03;;;2.10;;
24044;SDS011;26257;49.442;8.422;2022-11-20T16:54:55;4.50;;;1.75;;
24044;SDS011;26257;49.442;8.422;2022-11-20T16:57:21;5.28;;;1.73;;
24044;SDS011;26257;49.442;8.422;2022-11-20T16:59:47;5.97;;;1.83;;
24044;SDS011;26257;49.442;8.422;2022-11-20T17:02:12;6.90;;;1.92;;
24044;SDS011;26257;49.442;8.422;2022-11-20T17:04:38;6.53;;;1.70;;
24044;SDS011;26257;49.442;8.422;2022-11-20T17:07:04;4.97;;;1.85;;
24044;SDS011;26257;49.442;8.422;2022-11-20T17:09:29;7.00;;;2.17;;
24044;SDS011;26257;49.442;8.422;2022-11-20T17:11:54;5.20;;;1.85;;
24044;SDS011;26257;49.442;8.422;2022-11-20T17:14:20;11.45;;;3.92;;
24044;SDS011;26257;49.442;8.422;2022-11-20T17:16:45;23.35;;;11.50;;